Baldwin Place, New York
Current Conditions -  °F | °C
As of 4:53 PM on Tuesday 21 Oct 2014 (Local Time) from KDXR Reporting Station
Light Rain Light Rain  
Wind Chill: 59°   Ceiling: 6500
Heat Index: 59°   Visibility: 7mi
Dew Point: 29°   Wind: 5mph
Humidity: 32%   Direction: 180°S
Pressure: 29.87"   Gusts: NA
Location:  41.35°N, 73.76°W
Report Text: KDXR 212053Z 18004KT 7SM -RA BKN065 OVC080 15/M02 A2987 RMK AO2 RAB40 SLP116 P0000 60000 T01501017 53001
Loading
Personal Weather Stations






























Interactive Weather Map
Tropical Storm Tracking
New forecast layout! Learn more

10-Day Weather Forecast

Advertisements
Track Severe Weather on mobile